createdAt,value
2023-01-01T00:00:55.108Z,1.22
2023-01-01T00:02:17.111Z,1.24
2023-01-01T00:03:39.708Z,1.23
2023-01-01T00:05:01.238Z,1.26
2023-01-01T00:06:23.950Z,1.28
2023-01-01T00:07:45.754Z,1.16
2023-01-01T00:09:26.219Z,1.10
2023-01-01T00:10:48.060Z,1.11
2023-01-01T00:12:09.859Z,1.14
2023-01-01T00:13:31.972Z,1.16
2023-01-01T00:14:53.913Z,1.17
2023-01-01T00:16:15.845Z,1.19
2023-01-01T00:17:37.771Z,1.21
2023-01-01T00:18:59.860Z,1.21
2023-01-01T00:20:21.663Z,1.19
2023-01-01T00:21:43.465Z,1.23
2023-01-01T00:23:05.142Z,1.24
2023-01-01T00:24:27.112Z,1.25
2023-01-01T00:25:49.019Z,1.26
2023-01-01T00:27:11.108Z,1.27
2023-01-01T00:28:32.984Z,1.26
2023-01-01T00:29:54.821Z,1.27
2023-01-01T00:31:20.407Z,1.26
2023-01-01T00:32:42.131Z,1.26
2023-01-01T00:34:03.953Z,1.25
2023-01-01T00:35:26.996Z,1.25
2023-01-01T00:36:48.709Z,1.27
2023-01-01T00:38:10.588Z,1.26
2023-01-01T00:39:32.492Z,1.26
2023-01-01T00:40:54.396Z,1.26
2023-01-01T00:42:16.339Z,1.25
2023-01-01T00:43:38.102Z,1.25
2023-01-01T00:44:59.968Z,1.24
2023-01-01T00:46:21.867Z,1.23
2023-01-01T00:47:43.894Z,1.22
2023-01-01T00:49:05.822Z,1.22
2023-01-01T00:50:27.822Z,1.18
2023-01-01T00:51:49.951Z,1.13
2023-01-01T00:53:12.037Z,1.14
2023-01-01T00:54:33.577Z,1.15
2023-01-01T00:55:56.573Z,1.13
2023-01-01T00:57:18.329Z,1.12
2023-01-01T00:58:40.167Z,1.06
2023-01-01T01:00:02.176Z,0.98
2023-01-01T01:01:24.224Z,0.99
2023-01-01T01:02:46.979Z,0.96
2023-01-01T01:04:09.462Z,0.98
2023-01-01T01:05:32.332Z,0.98
2023-01-01T01:06:53.866Z,1.00
2023-01-01T01:08:15.789Z,1.00
2023-01-01T01:09:37.758Z,1.02
2023-01-01T01:11:07.824Z,1.03
2023-01-01T01:12:29.404Z,1.03
2023-01-01T01:13:53.777Z,1.04
2023-01-01T01:15:15.675Z,1.04
2023-01-01T01:16:37.433Z,1.05
2023-01-01T01:17:59.031Z,1.06
2023-01-01T01:19:24.039Z,1.06
2023-01-01T01:20:51.918Z,1.05
2023-01-01T01:22:13.863Z,1.05
2023-01-01T01:23:36.142Z,1.03
2023-01-01T01:24:58.673Z,1.03
2023-01-01T01:26:23.624Z,1.02
2023-01-01T01:27:45.306Z,1.01
2023-01-01T01:29:07.289Z,1.00
2023-01-01T01:30:30.590Z,1.00
2023-01-01T01:31:52.270Z,1.01
2023-01-01T01:33:14.286Z,0.99
2023-01-01T01:34:36.229Z,0.99
2023-01-01T01:35:58.540Z,0.99
2023-01-01T01:37:20.493Z,0.98
2023-01-01T01:38:43.012Z,0.97
2023-01-01T01:40:05.009Z,0.96
2023-01-01T01:41:29.114Z,0.97
2023-01-01T01:42:52.239Z,0.94
2023-01-01T01:44:51.603Z,0.95
2023-01-01T01:46:34.580Z,0.95
2023-01-01T01:47:58.887Z,0.95
2023-01-01T01:49:32.028Z,0.95
2023-01-01T01:50:56.503Z,0.96
2023-01-01T01:52:18.545Z,0.93
2023-01-01T01:53:46.264Z,0.93
2023-01-01T01:55:09.855Z,0.93
2023-01-01T01:56:49.749Z,0.90
2023-01-01T01:58:12.726Z,0.88
2023-01-01T01:59:38.605Z,0.89
2023-01-01T02:01:01.138Z,0.89
2023-01-01T02:02:58.386Z,0.87
2023-01-01T02:04:20.947Z,0.88
2023-01-01T02:05:43.171Z,0.88
2023-01-01T02:07:05.355Z,0.88
2023-01-01T02:08:28.457Z,0.83
2023-01-01T02:09:50.598Z,0.84
2023-01-01T02:11:14.211Z,0.82
2023-01-01T02:12:39.468Z,0.82
2023-01-01T02:14:05.222Z,0.80
2023-01-01T02:15:33.932Z,0.80
2023-01-01T02:17:00.663Z,0.80
2023-01-01T02:18:28.840Z,0.78
2023-01-01T02:20:19.154Z,0.79
2023-01-01T02:22:04.003Z,0.76
2023-01-01T02:23:53.214Z,0.74
2023-01-01T02:25:24.159Z,0.72
2023-01-01T02:27:03.495Z,0.71
2023-01-01T02:28:53.456Z,0.68
2023-01-01T02:30:16.095Z,0.68
2023-01-01T02:31:47.692Z,0.65
2023-01-01T02:33:16.411Z,0.68
2023-01-01T02:34:54.953Z,0.67
2023-01-01T02:36:19.045Z,0.68
2023-01-01T02:37:41.557Z,0.69
2023-01-01T02:39:07.116Z,0.68
2023-01-01T02:40:29.402Z,0.68
2023-01-01T02:41:54.819Z,0.67
2023-01-01T02:43:22.988Z,0.68
2023-01-01T02:44:48.790Z,0.68
2023-01-01T02:46:12.528Z,0.67
2023-01-01T02:47:34.252Z,0.69
2023-01-01T02:48:56.087Z,0.68
2023-01-01T02:50:23.965Z,0.67
2023-01-01T02:51:57.712Z,0.67
2023-01-01T02:53:37.375Z,0.67
2023-01-01T02:55:30.796Z,0.65
2023-01-01T02:57:04.008Z,0.65
2023-01-01T02:58:58.255Z,0.64
2023-01-01T03:00:31.369Z,0.63
2023-01-01T03:02:18.595Z,0.63
2023-01-01T03:04:05.759Z,0.61
2023-01-01T03:06:15.468Z,0.63
2023-01-01T03:07:49.934Z,0.62
2023-01-01T03:09:23.290Z,0.54
2023-01-01T03:11:03.441Z,0.54
2023-01-01T03:12:43.881Z,0.53
2023-01-01T03:14:44.005Z,0.56
2023-01-01T03:16:11.173Z,0.56
2023-01-01T03:17:41.325Z,0.55
2023-01-01T03:19:11.415Z,0.55
2023-01-01T03:20:38.990Z,0.54
2023-01-01T03:22:09.027Z,0.55
2023-01-01T03:23:37.002Z,0.53
2023-01-01T03:25:14.690Z,0.54
2023-01-01T03:26:39.004Z,0.53
2023-01-01T03:28:18.694Z,0.51
2023-01-01T03:29:42.664Z,0.50
2023-01-01T03:31:04.644Z,0.52
2023-01-01T03:32:56.024Z,0.50
2023-01-01T03:34:23.733Z,0.49
2023-01-01T03:35:50.489Z,0.49
2023-01-01T03:37:18.616Z,0.50
2023-01-01T03:38:52.130Z,0.50
2023-01-01T03:40:15.161Z,0.49
2023-01-01T03:41:56.767Z,0.50
2023-01-01T03:43:49.429Z,0.50
2023-01-01T03:45:39.180Z,0.48
2023-01-01T03:47:01.893Z,0.48
2023-01-01T03:48:23.778Z,0.48
2023-01-01T03:49:46.471Z,0.45
2023-01-01T03:51:22.126Z,0.45
2023-01-01T03:53:08.058Z,0.45
2023-01-01T03:54:46.160Z,0.45
2023-01-01T03:56:22.324Z,0.42
2023-01-01T03:57:49.824Z,0.39
2023-01-01T03:59:35.221Z,0.40
2023-01-01T04:01:06.798Z,0.42
2023-01-01T04:02:36.743Z,0.39
2023-01-01T04:04:01.511Z,0.41
2023-01-01T04:05:25.021Z,0.41
2023-01-01T04:06:47.362Z,0.41
2023-01-01T04:08:10.574Z,0.39
2023-01-01T04:09:36.945Z,0.40
2023-01-01T04:11:00.686Z,0.41
2023-01-01T04:12:22.676Z,0.40
2023-01-01T04:13:48.793Z,0.37
2023-01-01T04:15:10.733Z,0.39
2023-01-01T04:16:32.668Z,0.39
2023-01-01T04:17:55.079Z,0.39
2023-01-01T04:19:16.896Z,0.40
2023-01-01T04:20:38.861Z,0.40
2023-01-01T04:22:01.360Z,0.41
2023-01-01T04:23:23.232Z,0.39
2023-01-01T04:24:45.099Z,0.40
2023-01-01T04:26:11.645Z,0.39
2023-01-01T04:27:33.617Z,0.40
2023-01-01T04:28:55.256Z,0.39
2023-01-01T04:30:17.983Z,0.39
2023-01-01T04:31:39.981Z,0.40
2023-01-01T04:33:01.900Z,0.40
2023-01-01T04:34:23.772Z,0.41
2023-01-01T04:35:45.905Z,0.41
2023-01-01T04:37:12.905Z,0.39
2023-01-01T04:38:35.893Z,0.38
2023-01-01T04:39:58.300Z,0.27
2023-01-01T04:41:20.362Z,0.25
2023-01-01T04:42:43.178Z,0.20
2023-01-01T04:44:05.789Z,0.21
2023-01-01T04:45:27.797Z,0.23
2023-01-01T04:46:50.847Z,0.22
2023-01-01T04:48:15.100Z,0.23
2023-01-01T04:49:37.148Z,0.22
2023-01-01T04:51:01.585Z,0.22
2023-01-01T04:52:23.783Z,0.22
2023-01-01T04:53:46.020Z,0.22
2023-01-01T04:55:08.140Z,0.21
2023-01-01T04:56:30.717Z,0.23
2023-01-01T04:57:52.606Z,0.24
2023-01-01T04:59:14.577Z,0.24
2023-01-01T05:00:36.524Z,0.23
2023-01-01T05:01:59.008Z,0.24
2023-01-01T05:03:20.713Z,0.23
2023-01-01T05:04:42.725Z,0.24
2023-01-01T05:06:10.470Z,0.24
2023-01-01T05:07:33.853Z,0.25
2023-01-01T05:08:58.429Z,0.25
2023-01-01T05:10:20.119Z,0.25
2023-01-01T05:11:42.060Z,0.20
2023-01-01T05:13:08.649Z,0.21
2023-01-01T05:14:30.219Z,0.21
2023-01-01T05:15:52.013Z,0.21
2023-01-01T05:17:14.873Z,0.21
2023-01-01T05:18:37.781Z,0.21
2023-01-01T05:20:00.404Z,0.19
2023-01-01T05:21:27.808Z,0.19
2023-01-01T05:22:49.352Z,0.20
2023-01-01T05:24:11.503Z,0.18
2023-01-01T05:25:33.105Z,0.17
2023-01-01T05:26:55.035Z,0.16
2023-01-01T05:28:16.597Z,0.17
2023-01-01T05:29:38.613Z,0.15
2023-01-01T05:31:04.778Z,0.16
2023-01-01T05:32:26.483Z,0.17
2023-01-01T05:33:49.299Z,0.15
2023-01-01T05:35:11.232Z,0.12
2023-01-01T05:36:38.440Z,0.13
2023-01-01T05:38:00.489Z,0.13
2023-01-01T05:39:21.971Z,0.12
2023-01-01T05:40:43.841Z,0.13
2023-01-01T05:42:05.842Z,0.12
2023-01-01T05:43:30.007Z,0.11
2023-01-01T05:44:51.907Z,0.09
2023-01-01T05:46:31.903Z,0.09
2023-01-01T05:47:53.846Z,0.10
2023-01-01T05:49:15.590Z,0.06
2023-01-01T05:50:37.148Z,0.06
2023-01-01T05:51:58.949Z,0.04
2023-01-01T05:53:20.720Z,0.06
2023-01-01T05:54:42.843Z,0.06
2023-01-01T05:56:05.631Z,0.07
2023-01-01T05:57:29.297Z,0.08
2023-01-01T05:58:51.044Z,0.06
2023-01-01T06:00:13.319Z,0.08
2023-01-01T06:01:38.737Z,0.08
2023-01-01T06:03:05.116Z,0.09
2023-01-01T06:04:26.890Z,0.09
2023-01-01T06:05:48.994Z,0.07
2023-01-01T06:07:10.967Z,0.11
2023-01-01T06:08:32.947Z,0.11
2023-01-01T06:09:54.623Z,0.11
2023-01-01T06:11:16.570Z,0.10
2023-01-01T06:12:38.446Z,0.11
2023-01-01T06:14:01.348Z,0.11
2023-01-01T06:15:23.199Z,0.10
2023-01-01T06:16:45.181Z,0.11
2023-01-01T06:18:07.258Z,0.11
2023-01-01T06:19:29.337Z,0.12
2023-01-01T06:20:51.891Z,0.14
2023-01-01T06:22:13.520Z,0.15
2023-01-01T06:23:35.459Z,0.16
2023-01-01T06:24:57.382Z,0.17
2023-01-01T06:26:23.577Z,0.18
2023-01-01T06:27:45.441Z,0.18
2023-01-01T06:29:07.290Z,0.19
2023-01-01T06:30:28.986Z,0.19
2023-01-01T06:31:50.464Z,0.21
2023-01-01T06:33:12.479Z,0.18
2023-01-01T06:34:34.305Z,0.20
2023-01-01T06:35:56.372Z,0.21
2023-01-01T06:37:17.851Z,0.24
2023-01-01T06:38:42.621Z,0.26
2023-01-01T06:40:05.433Z,0.27
2023-01-01T06:41:28.672Z,0.32
2023-01-01T06:42:50.695Z,0.34
2023-01-01T06:44:12.312Z,0.38
2023-01-01T06:45:34.129Z,0.39
2023-01-01T06:46:55.961Z,0.32
2023-01-01T06:48:17.941Z,0.37
2023-01-01T06:49:39.847Z,0.32
2023-01-01T06:51:08.423Z,0.26
2023-01-01T06:52:30.607Z,0.26
2023-01-01T06:53:52.942Z,0.22
2023-01-01T06:55:14.699Z,0.35
2023-01-01T06:56:37.015Z,0.46
2023-01-01T06:57:59.078Z,0.61
2023-01-01T06:59:20.789Z,0.66
2023-01-01T07:00:43.584Z,0.84
2023-01-01T07:02:05.870Z,0.88
2023-01-01T07:03:28.110Z,1.00
2023-01-01T07:04:50.311Z,1.17
2023-01-01T07:06:12.157Z,1.31
2023-01-01T07:07:36.059Z,1.43
2023-01-01T07:08:58.823Z,1.56
2023-01-01T07:10:20.383Z,1.68
2023-01-01T07:11:42.406Z,1.82
2023-01-01T07:13:04.292Z,1.94
2023-01-01T07:14:26.181Z,2.06
2023-01-01T07:15:48.002Z,2.18
2023-01-01T07:17:09.902Z,2.29
2023-01-01T07:18:31.817Z,2.41
2023-01-01T07:19:53.836Z,2.51
2023-01-01T07:21:29.454Z,2.64
2023-01-01T07:22:51.625Z,2.73
2023-01-01T07:24:15.466Z,2.61
2023-01-01T07:25:37.150Z,2.56
2023-01-01T07:26:59.018Z,2.57
2023-01-01T07:28:22.293Z,2.62
2023-01-01T07:29:43.932Z,2.60
2023-01-01T07:31:05.905Z,2.48
2023-01-01T07:32:27.819Z,2.59
2023-01-01T07:33:50.059Z,2.70
2023-01-01T07:35:11.697Z,2.67
2023-01-01T07:36:34.266Z,2.90
2023-01-01T07:37:55.967Z,3.18
2023-01-01T07:39:17.891Z,3.30
2023-01-01T07:40:39.814Z,3.56
2023-01-01T07:42:04.881Z,3.74
2023-01-01T07:43:29.304Z,3.95
2023-01-01T07:44:51.018Z,4.13
2023-01-01T07:46:16.623Z,4.32
2023-01-01T07:47:38.371Z,4.41
2023-01-01T07:49:00.280Z,4.62
2023-01-01T07:50:23.896Z,4.65
2023-01-01T07:51:45.765Z,4.57
2023-01-01T07:53:08.218Z,4.70
2023-01-01T07:54:30.326Z,4.94
2023-01-01T07:55:52.356Z,5.16
2023-01-01T07:57:13.912Z,5.34
2023-01-01T07:58:38.806Z,5.27
2023-01-01T08:00:00.685Z,5.60
2023-01-01T08:01:22.874Z,6.04
2023-01-01T08:02:45.472Z,6.16
2023-01-01T08:04:07.623Z,6.50
2023-01-01T08:05:29.193Z,6.41
2023-01-01T08:06:51.044Z,6.74
2023-01-01T08:08:12.855Z,6.77
2023-01-01T08:09:34.847Z,7.05
2023-01-01T08:11:03.869Z,7.68
2023-01-01T08:12:26.458Z,7.97
2023-01-01T08:13:48.271Z,8.35
2023-01-01T08:15:10.874Z,8.70
2023-01-01T08:16:32.778Z,8.99
2023-01-01T08:17:58.415Z,9.38
2023-01-01T08:19:20.236Z,9.69
2023-01-01T08:20:42.144Z,9.71
2023-01-01T08:22:04.295Z,10.08
2023-01-01T08:23:26.049Z,10.02
2023-01-01T08:24:47.608Z,10.52
2023-01-01T08:26:19.081Z,10.96
2023-01-01T08:27:40.595Z,11.34
2023-01-01T08:29:06.952Z,11.30
2023-01-01T08:30:29.458Z,11.48
2023-01-01T08:31:51.466Z,11.32
2023-01-01T08:33:13.520Z,11.94
2023-01-01T08:34:35.366Z,12.35
2023-01-01T08:35:57.329Z,12.72
2023-01-01T08:37:21.403Z,12.79
2023-01-01T08:38:43.941Z,13.65
2023-01-01T08:40:06.339Z,14.04
2023-01-01T08:41:27.869Z,14.31
2023-01-01T08:42:49.834Z,14.81
2023-01-01T08:44:11.850Z,15.01
2023-01-01T08:45:34.026Z,15.12
2023-01-01T08:46:55.856Z,15.29
2023-01-01T08:48:17.790Z,15.54
2023-01-01T08:49:39.456Z,16.16
2023-01-01T08:51:02.111Z,16.22
2023-01-01T08:52:23.982Z,16.03
2023-01-01T08:53:50.942Z,16.11
2023-01-01T08:55:13.314Z,15.96
2023-01-01T08:56:35.146Z,16.35
2023-01-01T08:57:57.033Z,16.09
2023-01-01T08:59:19.162Z,15.96
2023-01-01T09:00:41.055Z,15.97
2023-01-01T09:02:03.431Z,16.34
2023-01-01T09:03:25.887Z,16.90
2023-01-01T09:04:47.610Z,17.00
2023-01-01T09:06:09.418Z,16.94
2023-01-01T09:07:31.428Z,16.82
2023-01-01T09:08:53.170Z,17.03
2023-01-01T09:10:15.547Z,16.40
2023-01-01T09:11:37.636Z,16.77
2023-01-01T09:12:59.653Z,16.76
2023-01-01T09:14:22.124Z,16.64
2023-01-01T09:15:44.203Z,16.21
2023-01-01T09:17:06.169Z,15.55
2023-01-01T09:18:28.182Z,15.23
2023-01-01T09:19:50.158Z,14.23
2023-01-01T09:21:12.275Z,13.87
2023-01-01T09:22:34.624Z,13.20
2023-01-01T09:23:56.502Z,12.29
2023-01-01T09:25:18.671Z,11.98
2023-01-01T09:26:40.450Z,11.78
2023-01-01T09:28:05.218Z,11.04
2023-01-01T09:29:27.009Z,10.65
2023-01-01T09:30:48.789Z,10.47
2023-01-01T09:32:10.589Z,10.14
2023-01-01T09:33:33.259Z,9.93
2023-01-01T09:34:55.015Z,9.56
2023-01-01T09:36:22.546Z,9.41
2023-01-01T09:37:44.636Z,9.09
2023-01-01T09:39:06.773Z,8.89
2023-01-01T09:40:42.636Z,8.80
2023-01-01T09:42:35.873Z,8.66
2023-01-01T09:44:00.561Z,8.49
2023-01-01T09:45:32.923Z,8.12
2023-01-01T09:46:59.563Z,7.88
2023-01-01T09:48:23.797Z,7.88
2023-01-01T09:49:47.946Z,7.71
2023-01-01T09:51:18.072Z,7.72
2023-01-01T09:52:57.114Z,7.57
2023-01-01T09:54:18.920Z,7.32
2023-01-01T09:56:00.914Z,7.35
2023-01-01T09:57:30.911Z,7.31
2023-01-01T09:58:56.168Z,7.22
2023-01-01T10:00:19.359Z,7.11
2023-01-01T10:01:53.178Z,7.06
2023-01-01T10:03:56.459Z,7.14
2023-01-01T10:05:52.616Z,6.98
2023-01-01T10:07:45.675Z,6.88
2023-01-01T10:09:34.563Z,6.80
2023-01-01T10:11:06.327Z,6.71
2023-01-01T10:12:40.737Z,6.65
2023-01-01T10:14:08.250Z,6.63
2023-01-01T10:15:37.973Z,6.63
2023-01-01T10:17:11.377Z,6.55
2023-01-01T10:18:38.328Z,6.49
2023-01-01T10:20:07.468Z,6.46
2023-01-01T10:21:38.633Z,6.41
2023-01-01T10:23:19.448Z,6.38
2023-01-01T10:24:47.139Z,6.40
2023-01-01T10:26:16.282Z,6.51
2023-01-01T10:27:44.932Z,6.51
2023-01-01T10:29:18.544Z,6.44
2023-01-01T10:30:43.049Z,6.37
2023-01-01T10:32:30.615Z,6.35
2023-01-01T10:33:52.776Z,6.28
2023-01-01T10:35:17.205Z,6.24
2023-01-01T10:36:39.179Z,6.22
2023-01-01T10:38:02.318Z,6.18
2023-01-01T10:39:25.053Z,6.17
2023-01-01T10:40:46.769Z,6.11
2023-01-01T10:42:10.727Z,6.11
2023-01-01T10:43:32.423Z,6.08
2023-01-01T10:44:55.586Z,6.11
2023-01-01T10:46:27.685Z,6.12
2023-01-01T10:48:20.547Z,6.14
2023-01-01T10:50:07.839Z,6.22
2023-01-01T10:51:29.545Z,6.16
2023-01-01T10:52:57.484Z,6.20
2023-01-01T10:54:40.356Z,6.19
2023-01-01T10:56:13.100Z,6.22
2023-01-01T10:57:38.786Z,6.27
2023-01-01T10:59:00.404Z,6.38
2023-01-01T11:00:22.635Z,6.33
2023-01-01T11:01:45.240Z,6.33
2023-01-01T11:03:21.389Z,6.32
2023-01-01T11:04:43.092Z,6.34
2023-01-01T11:06:24.956Z,6.39
2023-01-01T11:07:47.859Z,6.46
2023-01-01T11:09:28.480Z,6.47
2023-01-01T11:10:53.753Z,6.60
2023-01-01T11:13:02.922Z,6.54
2023-01-01T11:14:25.598Z,6.54
2023-01-01T11:15:47.739Z,6.54
2023-01-01T11:17:10.545Z,6.56
2023-01-01T11:18:36.224Z,6.58
2023-01-01T11:20:02.935Z,6.67
2023-01-01T11:21:25.227Z,6.80
2023-01-01T11:22:52.819Z,6.90
2023-01-01T11:24:21.499Z,6.94
2023-01-01T11:26:17.391Z,7.00
2023-01-01T11:27:39.231Z,7.11
2023-01-01T11:29:05.335Z,7.19
2023-01-01T11:30:29.394Z,7.26
2023-01-01T11:31:52.533Z,7.25
2023-01-01T11:33:17.789Z,7.21
2023-01-01T11:34:43.082Z,7.19
2023-01-01T11:36:06.689Z,7.17
2023-01-01T11:37:36.282Z,7.26
2023-01-01T11:39:23.225Z,7.38
2023-01-01T11:40:52.672Z,7.52
2023-01-01T11:42:34.357Z,7.57
2023-01-01T11:43:56.300Z,7.46
2023-01-01T11:45:32.917Z,7.40
2023-01-01T11:46:58.043Z,7.36
2023-01-01T11:48:26.065Z,7.31
2023-01-01T11:49:53.837Z,7.28
2023-01-01T11:51:31.898Z,7.25
2023-01-01T11:52:58.257Z,7.21
2023-01-01T11:54:27.922Z,7.22
2023-01-01T11:56:00.365Z,7.16
2023-01-01T11:57:25.754Z,7.11
2023-01-01T11:59:16.384Z,7.24
2023-01-01T12:00:38.583Z,7.38
2023-01-01T12:02:04.389Z,7.47
2023-01-01T12:03:49.181Z,7.63
2023-01-01T12:05:48.643Z,7.65
2023-01-01T12:07:18.361Z,7.73
2023-01-01T12:08:51.470Z,7.82
2023-01-01T12:10:40.333Z,7.69
2023-01-01T12:12:17.601Z,7.66
2023-01-01T12:13:51.203Z,7.60
2023-01-01T12:15:28.852Z,7.52
2023-01-01T12:16:58.101Z,7.52
2023-01-01T12:18:49.396Z,7.55
2023-01-01T12:20:30.521Z,7.70
2023-01-01T12:21:58.822Z,7.64
2023-01-01T12:23:20.798Z,7.61
2023-01-01T12:24:43.174Z,7.55
2023-01-01T12:26:20.607Z,7.52
2023-01-01T12:28:19.334Z,7.55
2023-01-01T12:29:53.326Z,7.57
2023-01-01T12:31:28.577Z,7.68
2023-01-01T12:33:16.806Z,7.81
2023-01-01T12:34:57.347Z,7.83
2023-01-01T12:36:45.022Z,7.85
2023-01-01T12:39:00.637Z,7.93
2023-01-01T12:40:51.709Z,7.93
2023-01-01T12:42:29.964Z,7.86
2023-01-01T12:44:15.573Z,8.03
2023-01-01T12:45:42.867Z,8.03
2023-01-01T12:47:19.899Z,7.91
2023-01-01T12:48:47.638Z,7.98
2023-01-01T12:50:21.771Z,8.00
2023-01-01T12:51:55.249Z,8.05
2023-01-01T12:53:54.651Z,8.10
2023-01-01T12:55:22.563Z,8.08
2023-01-01T12:57:09.517Z,8.19
2023-01-01T12:58:39.685Z,8.19
2023-01-01T13:00:04.472Z,8.08
2023-01-01T13:01:33.950Z,8.08
2023-01-01T13:03:18.593Z,8.03
2023-01-01T13:04:41.961Z,8.09
2023-01-01T13:06:04.796Z,8.06
2023-01-01T13:07:43.042Z,8.06
2023-01-01T13:09:15.118Z,8.14
2023-01-01T13:10:40.637Z,8.20
2023-01-01T13:12:16.265Z,8.08
2023-01-01T13:13:38.188Z,8.11
2023-01-01T13:14:59.889Z,8.12
2023-01-01T13:16:39.339Z,8.11
2023-01-01T13:18:05.365Z,8.07
2023-01-01T13:19:33.669Z,8.03
2023-01-01T13:20:59.128Z,8.03
2023-01-01T13:22:27.141Z,7.98
2023-01-01T13:23:50.305Z,8.07
2023-01-01T13:25:11.845Z,8.03
2023-01-01T13:26:35.346Z,7.98
2023-01-01T13:28:00.585Z,7.96
2023-01-01T13:29:22.398Z,7.92
2023-01-01T13:30:44.239Z,7.88
2023-01-01T13:32:07.485Z,7.84
2023-01-01T13:33:33.313Z,7.80
2023-01-01T13:35:03.240Z,7.76
2023-01-01T13:36:25.273Z,7.77
2023-01-01T13:37:47.941Z,7.77
2023-01-01T13:39:09.553Z,7.77
2023-01-01T13:40:47.555Z,7.76
2023-01-01T13:42:57.645Z,7.72
2023-01-01T13:44:23.873Z,7.79
2023-01-01T13:46:13.610Z,7.81
2023-01-01T13:47:49.270Z,7.76
2023-01-01T13:49:29.701Z,7.77
2023-01-01T13:51:33.638Z,7.69
2023-01-01T13:53:00.935Z,7.68
2023-01-01T13:55:06.056Z,7.63
2023-01-01T13:56:52.584Z,7.55
2023-01-01T13:58:40.786Z,7.52
2023-01-01T14:00:26.021Z,7.48
2023-01-01T14:02:12.406Z,7.39
2023-01-01T14:03:42.456Z,7.32
2023-01-01T14:05:32.863Z,7.26
2023-01-01T14:06:58.330Z,7.23
2023-01-01T14:08:32.785Z,7.20
2023-01-01T14:10:07.993Z,7.20
2023-01-01T14:11:30.028Z,7.16
2023-01-01T14:12:53.098Z,7.11
2023-01-01T14:14:31.131Z,7.08
2023-01-01T14:16:01.442Z,7.04
2023-01-01T14:17:24.427Z,6.97
2023-01-01T14:18:50.171Z,6.93
2023-01-01T14:20:18.736Z,6.90
2023-01-01T14:21:40.526Z,6.85
2023-01-01T14:23:16.157Z,6.83
2023-01-01T14:24:48.367Z,6.80
2023-01-01T14:26:22.028Z,6.79
2023-01-01T14:27:45.133Z,6.75
2023-01-01T14:29:17.168Z,6.75
2023-01-01T14:30:38.807Z,6.72
2023-01-01T14:32:12.208Z,6.68
2023-01-01T14:33:34.948Z,6.64
2023-01-01T14:35:01.802Z,6.61
2023-01-01T14:36:32.015Z,6.54
2023-01-01T14:37:53.650Z,6.50
2023-01-01T14:39:28.824Z,6.45
2023-01-01T14:41:11.438Z,6.41
2023-01-01T14:42:34.720Z,6.38
2023-01-01T14:44:18.751Z,6.32
2023-01-01T14:45:43.980Z,6.24
2023-01-01T14:47:16.869Z,6.21
2023-01-01T14:48:42.330Z,6.16
2023-01-01T14:50:16.998Z,6.16
2023-01-01T14:51:45.627Z,6.11
2023-01-01T14:53:13.546Z,6.10
2023-01-01T14:54:42.430Z,6.06
2023-01-01T14:56:07.137Z,6.00
2023-01-01T14:57:37.400Z,5.99
2023-01-01T14:59:13.508Z,5.98
2023-01-01T15:00:35.517Z,5.93
2023-01-01T15:02:12.572Z,5.88
2023-01-01T15:03:34.581Z,5.85
2023-01-01T15:04:57.795Z,5.82
2023-01-01T15:06:19.731Z,5.75
2023-01-01T15:07:41.709Z,5.71
2023-01-01T15:09:03.808Z,5.72
2023-01-01T15:10:28.217Z,5.68
2023-01-01T15:11:53.468Z,5.68
2023-01-01T15:13:26.813Z,5.66
2023-01-01T15:14:50.950Z,5.65
2023-01-01T15:16:17.858Z,5.64
2023-01-01T15:17:47.964Z,5.62
2023-01-01T15:19:19.663Z,5.60
2023-01-01T15:20:41.781Z,5.57
2023-01-01T15:22:29.570Z,5.56
2023-01-01T15:24:11.626Z,5.51
2023-01-01T15:25:36.306Z,5.47
2023-01-01T15:27:01.055Z,5.46
2023-01-01T15:28:22.796Z,5.44
2023-01-01T15:29:47.641Z,5.40
2023-01-01T15:31:10.281Z,5.36
2023-01-01T15:32:38.721Z,5.32
2023-01-01T15:34:00.519Z,5.30
2023-01-01T15:35:31.775Z,5.24
2023-01-01T15:36:55.678Z,5.25
2023-01-01T15:38:26.515Z,5.25
2023-01-01T15:39:52.189Z,5.20
2023-01-01T15:41:45.337Z,5.19
2023-01-01T15:43:19.918Z,5.17
2023-01-01T15:44:41.952Z,5.13
2023-01-01T15:46:22.120Z,5.13
2023-01-01T15:47:45.135Z,5.07
2023-01-01T15:49:25.284Z,5.05
2023-01-01T15:50:50.628Z,5.05
2023-01-01T15:52:27.380Z,5.00
2023-01-01T15:53:59.483Z,4.96
2023-01-01T15:55:21.542Z,4.98
2023-01-01T15:56:43.656Z,4.96
2023-01-01T15:58:05.384Z,4.94
2023-01-01T15:59:33.458Z,4.94
2023-01-01T16:01:08.029Z,4.92
2023-01-01T16:02:36.374Z,4.88
2023-01-01T16:04:28.312Z,4.83
2023-01-01T16:05:53.495Z,4.78
2023-01-01T16:07:23.428Z,4.76
2023-01-01T16:08:46.048Z,4.74
2023-01-01T16:10:18.044Z,4.73
2023-01-01T16:11:39.897Z,4.74
2023-01-01T16:13:01.788Z,4.71
2023-01-01T16:14:24.419Z,4.69
2023-01-01T16:15:58.511Z,4.67
2023-01-01T16:17:21.449Z,4.65
2023-01-01T16:18:44.345Z,4.61
2023-01-01T16:20:06.682Z,4.61
2023-01-01T16:21:32.911Z,4.61
2023-01-01T16:22:54.810Z,4.63
2023-01-01T16:24:18.856Z,4.62
2023-01-01T16:25:40.554Z,4.64
2023-01-01T16:27:02.452Z,4.66
2023-01-01T16:28:24.240Z,4.64
2023-01-01T16:29:52.760Z,4.60
2023-01-01T16:31:23.391Z,4.58
2023-01-01T16:32:46.028Z,4.55
2023-01-01T16:34:09.113Z,4.53
2023-01-01T16:35:30.799Z,4.54
2023-01-01T16:36:52.668Z,4.54
2023-01-01T16:38:14.832Z,4.53
2023-01-01T16:39:36.473Z,4.51
2023-01-01T16:40:58.566Z,4.49
2023-01-01T16:42:20.280Z,4.45
2023-01-01T16:43:43.223Z,4.42
2023-01-01T16:45:05.597Z,4.40
2023-01-01T16:46:28.171Z,4.37
2023-01-01T16:47:49.786Z,4.34
2023-01-01T16:49:11.694Z,4.33
2023-01-01T16:50:33.758Z,4.34
2023-01-01T16:51:55.581Z,4.31
2023-01-01T16:53:17.465Z,4.28
2023-01-01T16:54:41.073Z,4.27
2023-01-01T16:56:02.635Z,4.25
2023-01-01T16:57:24.702Z,4.22
2023-01-01T16:58:49.412Z,4.20
2023-01-01T17:00:12.984Z,4.17
2023-01-01T17:01:34.875Z,4.15
2023-01-01T17:02:56.950Z,4.12
2023-01-01T17:04:18.773Z,4.11
2023-01-01T17:05:44.384Z,4.10
2023-01-01T17:07:06.267Z,4.07
2023-01-01T17:08:28.152Z,4.04
2023-01-01T17:09:49.749Z,4.02
2023-01-01T17:11:17.601Z,4.00
2023-01-01T17:12:39.166Z,3.98
2023-01-01T17:14:02.495Z,3.96
2023-01-01T17:15:24.550Z,3.94
2023-01-01T17:16:46.241Z,3.92
2023-01-01T17:18:08.044Z,3.90
2023-01-01T17:19:30.035Z,3.88
2023-01-01T17:20:51.913Z,3.86
2023-01-01T17:22:13.978Z,3.85
2023-01-01T17:23:36.942Z,3.81
2023-01-01T17:24:58.897Z,3.79
2023-01-01T17:26:24.051Z,3.77
2023-01-01T17:27:45.736Z,3.74
2023-01-01T17:29:07.750Z,3.73
2023-01-01T17:30:29.863Z,3.71
2023-01-01T17:31:52.187Z,3.70
2023-01-01T17:33:13.956Z,3.68
2023-01-01T17:34:36.027Z,3.65
2023-01-01T17:35:58.347Z,3.64
2023-01-01T17:37:19.997Z,3.64
2023-01-01T17:38:44.176Z,3.64
2023-01-01T17:40:06.521Z,3.62
2023-01-01T17:41:28.382Z,3.60
2023-01-01T17:42:50.004Z,3.58
2023-01-01T17:44:12.495Z,3.56
2023-01-01T17:45:37.273Z,3.53
2023-01-01T17:46:58.879Z,3.51
2023-01-01T17:48:20.700Z,3.50
2023-01-01T17:49:43.308Z,3.49
2023-01-01T17:51:05.193Z,3.49
2023-01-01T17:52:27.064Z,3.46
2023-01-01T17:53:48.931Z,3.45
2023-01-01T17:55:10.718Z,3.42
2023-01-01T17:56:32.728Z,3.42
2023-01-01T17:57:56.828Z,3.40
2023-01-01T17:59:18.756Z,3.39
2023-01-01T18:00:40.474Z,3.38
2023-01-01T18:02:02.506Z,3.37
2023-01-01T18:03:24.615Z,3.34
2023-01-01T18:04:46.342Z,3.34
2023-01-01T18:06:09.720Z,3.33
2023-01-01T18:07:31.585Z,3.31
2023-01-01T18:08:59.040Z,3.31
2023-01-01T18:10:20.645Z,3.28
2023-01-01T18:11:43.658Z,3.28
2023-01-01T18:13:05.454Z,3.26
2023-01-01T18:14:27.589Z,3.24
2023-01-01T18:15:49.532Z,3.24
2023-01-01T18:17:11.397Z,3.23
2023-01-01T18:18:37.705Z,3.22
2023-01-01T18:19:59.686Z,3.21
2023-01-01T18:21:23.669Z,3.19
2023-01-01T18:22:45.903Z,3.18
2023-01-01T18:24:13.289Z,3.16
2023-01-01T18:25:35.133Z,3.14
2023-01-01T18:26:57.024Z,3.13
2023-01-01T18:28:18.850Z,3.11
2023-01-01T18:29:40.742Z,3.11
2023-01-01T18:31:11.845Z,3.09
2023-01-01T18:32:33.760Z,3.08
2023-01-01T18:33:56.076Z,3.07
2023-01-01T18:35:18.074Z,3.07
2023-01-01T18:36:39.797Z,3.07
2023-01-01T18:38:01.697Z,3.04
2023-01-01T18:39:28.688Z,3.03
2023-01-01T18:41:21.530Z,3.03
2023-01-01T18:42:51.093Z,3.02
2023-01-01T18:44:24.444Z,3.01
2023-01-01T18:45:46.238Z,3.02
2023-01-01T18:47:12.545Z,3.00
2023-01-01T18:48:34.213Z,2.97
2023-01-01T18:50:23.683Z,2.97
2023-01-01T18:51:48.979Z,2.98
2023-01-01T18:53:23.304Z,2.97
2023-01-01T18:54:45.233Z,2.97
2023-01-01T18:56:12.893Z,2.95
2023-01-01T18:57:35.114Z,2.96
2023-01-01T18:58:57.874Z,2.95
2023-01-01T19:00:27.002Z,2.94
2023-01-01T19:01:49.803Z,2.94
2023-01-01T19:03:22.800Z,2.93
2023-01-01T19:04:44.723Z,2.93
2023-01-01T19:06:24.424Z,2.91
2023-01-01T19:08:03.101Z,2.89
2023-01-01T19:09:27.000Z,2.89
2023-01-01T19:10:56.004Z,2.87
2023-01-01T19:12:19.185Z,2.86
2023-01-01T19:13:41.094Z,2.85
2023-01-01T19:15:13.534Z,2.83
2023-01-01T19:16:35.684Z,2.84